createdAt,value
2018-09-22T00:02:25.323Z,58.53
2018-09-22T00:04:53.536Z,58.86
2018-09-22T00:07:21.730Z,59.04
2018-09-22T00:09:49.936Z,59.12
2018-09-22T00:12:18.176Z,58.03
2018-09-22T00:14:46.389Z,58.86
2018-09-22T00:17:14.600Z,58.62
2018-09-22T00:19:43.058Z,57.48
2018-09-22T00:22:11.319Z,56.71
2018-09-22T00:24:39.615Z,56.93
2018-09-22T00:27:07.982Z,57.53
2018-09-22T00:29:36.063Z,57.04
2018-09-22T00:32:04.335Z,58.22
2018-09-22T00:34:32.615Z,57.21
2018-09-22T00:37:00.895Z,57.92
2018-09-22T00:39:29.088Z,57.76
2018-09-22T00:41:57.397Z,57.25
2018-09-22T00:44:25.631Z,56.94
2018-09-22T00:46:53.843Z,56.72
2018-09-22T00:49:22.123Z,56.90
2018-09-22T00:51:50.341Z,56.79
2018-09-22T00:54:18.643Z,56.68
2018-09-22T00:56:46.807Z,57.95
2018-09-22T00:59:14.991Z,57.69
2018-09-22T01:01:43.215Z,57.82
2018-09-22T01:04:11.421Z,57.30
2018-09-22T01:06:39.601Z,57.30
2018-09-22T01:09:08.388Z,57.19
2018-09-22T01:11:37.262Z,56.30
2018-09-22T01:14:05.829Z,56.82
2018-09-22T01:16:34.181Z,56.98
2018-09-22T01:19:02.522Z,56.70
2018-09-22T01:21:30.735Z,56.98
2018-09-22T01:23:58.870Z,56.53
2018-09-22T01:26:27.333Z,57.35
2018-09-22T01:28:55.504Z,57.16
2018-09-22T01:31:23.730Z,56.76
2018-09-22T01:33:51.918Z,57.09
2018-09-22T01:36:20.895Z,56.75
2018-09-22T01:38:49.052Z,56.58
2018-09-22T01:41:17.193Z,57.13
2018-09-22T01:43:45.360Z,57.22
2018-09-22T01:46:13.577Z,57.65
2018-09-22T01:48:42.452Z,57.02
2018-09-22T01:51:10.638Z,57.18
2018-09-22T01:53:38.840Z,57.16
2018-09-22T01:56:07.226Z,57.34
2018-09-22T01:58:35.452Z,56.91
2018-09-22T02:01:03.660Z,57.11
2018-09-22T02:03:32.681Z,57.52
2018-09-22T02:06:00.852Z,57.87
2018-09-22T02:08:29.089Z,57.98
2018-09-22T02:10:57.214Z,57.67
2018-09-22T02:13:25.353Z,57.55
2018-09-22T02:15:53.486Z,58.61
2018-09-22T02:18:21.681Z,58.06
2018-09-22T02:20:50.524Z,58.06
2018-09-22T02:23:18.713Z,57.88
2018-09-22T02:25:46.985Z,57.49
2018-09-22T02:28:15.236Z,57.84
2018-09-22T02:30:43.496Z,58.46
2018-09-22T02:33:11.767Z,58.25
2018-09-22T02:35:40.063Z,58.44
2018-09-22T02:38:08.286Z,58.13
2018-09-22T02:40:36.525Z,57.50
2018-09-22T02:43:04.827Z,57.59
2018-09-22T02:45:32.983Z,58.03
2018-09-22T02:48:01.221Z,57.71
2018-09-22T02:50:29.500Z,57.34
2018-09-22T02:52:57.823Z,57.99
2018-09-22T02:55:26.073Z,58.40
2018-09-22T02:57:54.277Z,58.26
2018-09-22T03:00:22.491Z,58.76
2018-09-22T03:02:51.412Z,57.72
2018-09-22T03:05:19.695Z,58.39
2018-09-22T03:07:47.975Z,57.98
2018-09-22T03:10:16.591Z,57.75
2018-09-22T03:12:44.773Z,58.56
2018-09-22T03:15:13.041Z,58.07
2018-09-22T03:17:41.265Z,58.54
2018-09-22T03:20:09.492Z,59.27
2018-09-22T03:22:37.668Z,58.57
2018-09-22T03:25:05.968Z,59.23
2018-09-22T03:27:34.208Z,59.58
2018-09-22T03:30:02.433Z,58.99
2018-09-22T03:32:30.716Z,60.20
2018-09-22T03:34:59.003Z,59.26
2018-09-22T03:37:27.269Z,59.77
2018-09-22T03:39:55.402Z,59.04
2018-09-22T03:42:23.612Z,59.49
2018-09-22T03:44:51.888Z,59.57
2018-09-22T03:47:20.744Z,59.42
2018-09-22T03:49:48.874Z,58.80
2018-09-22T03:52:17.021Z,59.75
2018-09-22T03:54:45.191Z,59.33
2018-09-22T03:57:13.544Z,59.04
2018-09-22T03:59:41.782Z,59.10
2018-09-22T04:02:09.990Z,59.70
2018-09-22T04:04:38.270Z,59.26
2018-09-22T04:07:06.686Z,59.62
2018-09-22T04:09:35.273Z,59.77
2018-09-22T04:12:03.576Z,59.55
2018-09-22T04:14:31.780Z,59.88
2018-09-22T04:17:00.087Z,60.23
2018-09-22T04:19:28.318Z,60.20
2018-09-22T04:21:56.644Z,60.25
2018-09-22T04:24:24.898Z,59.17
2018-09-22T04:26:53.019Z,57.65
2018-09-22T04:29:21.390Z,57.30
2018-09-22T04:31:49.723Z,57.42
2018-09-22T04:34:18.230Z,57.82
2018-09-22T04:36:46.373Z,58.86
2018-09-22T04:39:14.593Z,58.00
2018-09-22T04:41:43.837Z,59.19
2018-09-22T04:44:12.048Z,58.64
2018-09-22T04:46:40.234Z,58.82
2018-09-22T04:49:08.369Z,57.92
2018-09-22T04:51:36.524Z,58.00
2018-09-22T04:54:04.797Z,57.79
2018-09-22T04:56:33.059Z,57.36
2018-09-22T04:59:01.361Z,57.94
2018-09-22T05:01:29.603Z,58.54
2018-09-22T05:03:57.799Z,58.00
2018-09-22T05:06:26.053Z,58.21
2018-09-22T05:08:54.203Z,59.40
2018-09-22T05:11:23.167Z,59.25
2018-09-22T05:13:51.381Z,60.27
2018-09-22T05:16:20.464Z,60.42
2018-09-22T05:18:48.663Z,60.42
2018-09-22T05:21:16.819Z,59.80
2018-09-22T05:23:45.070Z,58.70
2018-09-22T05:26:13.258Z,58.65
2018-09-22T05:28:41.392Z,58.92
2018-09-22T05:31:13.553Z,59.36
2018-09-22T05:33:41.785Z,59.37
2018-09-22T05:36:10.481Z,60.33
2018-09-22T05:38:38.893Z,59.75
2018-09-22T05:41:07.704Z,60.58
2018-09-22T05:43:36.595Z,60.28
2018-09-22T05:46:04.834Z,61.09
2018-09-22T05:48:33.039Z,60.84
2018-09-22T05:51:01.313Z,61.02
2018-09-22T05:53:29.558Z,60.39
2018-09-22T05:55:57.725Z,59.64
2018-09-22T05:58:25.936Z,60.17
2018-09-22T06:00:54.532Z,60.22
2018-09-22T06:03:22.855Z,59.24
2018-09-22T06:05:51.014Z,60.06
2018-09-22T06:08:19.364Z,59.82
2018-09-22T06:10:47.649Z,59.79
2018-09-22T06:13:15.870Z,59.51
2018-09-22T06:15:44.159Z,59.28
2018-09-22T06:18:19.038Z,59.58
2018-09-22T06:20:48.249Z,59.45
2018-09-22T06:23:16.767Z,59.34
2018-09-22T06:25:44.962Z,58.60
2018-09-22T06:28:13.144Z,58.00
2018-09-22T06:30:41.376Z,57.71
2018-09-22T06:33:09.664Z,57.33
2018-09-22T06:35:37.858Z,57.69
2018-09-22T06:38:06.157Z,57.24
2018-09-22T06:40:34.406Z,57.30
2018-09-22T06:43:02.618Z,57.73
2018-09-22T06:45:30.877Z,56.01
2018-09-22T06:47:59.138Z,56.95
2018-09-22T06:50:27.265Z,56.34
2018-09-22T06:52:55.468Z,56.07
2018-09-22T06:55:23.671Z,56.95
2018-09-22T06:57:51.818Z,55.95
2018-09-22T07:00:19.961Z,55.66
2018-09-22T07:02:48.185Z,56.23
2018-09-22T07:05:16.385Z,55.74
2018-09-22T07:07:44.545Z,55.61
2018-09-22T07:10:13.031Z,56.30
2018-09-22T07:12:41.219Z,56.16
2018-09-22T07:15:09.429Z,55.75
2018-09-22T07:17:37.615Z,56.03
2018-09-22T07:20:06.613Z,55.94
2018-09-22T07:22:40.344Z,55.73
2018-09-22T07:25:08.637Z,55.89
2018-09-22T07:27:36.856Z,55.24
2018-09-22T07:30:05.436Z,54.66
2018-09-22T07:32:33.647Z,55.08
2018-09-22T07:35:02.014Z,54.75
2018-09-22T07:37:30.196Z,54.60
2018-09-22T07:39:58.768Z,53.99
2018-09-22T07:42:27.007Z,53.80
2018-09-22T07:44:55.356Z,53.57
2018-09-22T07:47:23.640Z,54.03
2018-09-22T07:49:51.872Z,53.13
2018-09-22T07:52:20.092Z,52.46
2018-09-22T07:54:48.391Z,51.70
2018-09-22T07:57:16.573Z,51.84
2018-09-22T07:59:44.853Z,51.77
2018-09-22T08:02:12.960Z,51.73
2018-09-22T08:04:41.137Z,52.06
2018-09-22T08:07:09.402Z,51.99
2018-09-22T08:09:37.812Z,52.25
2018-09-22T08:12:06.009Z,51.43
2018-09-22T08:14:34.156Z,50.93
2018-09-22T08:17:02.408Z,51.02
2018-09-22T08:19:30.535Z,51.24
2018-09-22T08:21:58.827Z,50.09
2018-09-22T08:24:26.983Z,50.23
2018-09-22T08:26:55.248Z,49.83
2018-09-22T08:29:23.512Z,48.07
2018-09-22T08:31:51.755Z,46.34
2018-09-22T08:34:20.039Z,46.33
2018-09-22T08:36:48.339Z,45.72
2018-09-22T08:39:16.520Z,45.62
2018-09-22T08:41:44.691Z,44.75
2018-09-22T08:44:12.938Z,43.70
2018-09-22T08:46:41.898Z,43.52
2018-09-22T08:49:10.077Z,41.99
2018-09-22T08:51:38.387Z,41.86
2018-09-22T08:54:06.655Z,41.85
2018-09-22T08:56:35.006Z,41.20
2018-09-22T08:59:03.658Z,41.40
2018-09-22T09:01:31.880Z,42.39
2018-09-22T09:04:00.952Z,38.81
2018-09-22T09:06:29.136Z,37.83
2018-09-22T09:08:57.514Z,33.37
2018-09-22T09:11:25.816Z,29.60
2018-09-22T09:13:54.069Z,26.70
2018-09-22T09:16:22.402Z,26.93
2018-09-22T09:18:50.913Z,24.26
2018-09-22T09:21:19.190Z,22.10
2018-09-22T09:23:47.431Z,20.17
2018-09-22T09:26:15.621Z,19.63
2018-09-22T09:28:46.238Z,19.34
2018-09-22T09:31:15.409Z,21.39
2018-09-22T09:33:43.699Z,19.89
2018-09-22T09:36:12.131Z,20.36
2018-09-22T09:38:40.700Z,22.31
2018-09-22T09:41:09.413Z,21.72
2018-09-22T09:43:38.369Z,20.86
2018-09-22T09:46:06.832Z,21.42
2018-09-22T09:48:35.086Z,22.40
2018-09-22T09:51:03.352Z,24.56
2018-09-22T09:53:31.951Z,26.50
2018-09-22T09:56:01.092Z,27.72
2018-09-22T09:58:29.354Z,27.60
2018-09-22T10:00:57.570Z,27.84
2018-09-22T10:03:25.727Z,28.72
2018-09-22T10:05:54.054Z,30.17
2018-09-22T10:08:22.236Z,30.72
2018-09-22T10:10:50.494Z,29.86
2018-09-22T10:13:18.758Z,25.00
2018-09-22T10:15:46.993Z,22.88
2018-09-22T10:18:15.226Z,22.45
2018-09-22T10:20:43.562Z,23.90
2018-09-22T10:23:11.789Z,25.58
2018-09-22T10:25:40.116Z,26.25
2018-09-22T10:28:08.356Z,26.93
2018-09-22T10:30:36.408Z,27.68
2018-09-22T10:33:04.648Z,26.17
2018-09-22T10:35:32.938Z,27.09
2018-09-22T10:38:01.185Z,27.09
2018-09-22T10:40:29.441Z,25.98
2018-09-22T10:42:57.608Z,27.23
2018-09-22T10:45:25.792Z,27.25
2018-09-22T10:47:53.953Z,27.55
2018-09-22T10:50:22.052Z,28.17
2018-09-22T10:52:50.434Z,28.14
2018-09-22T10:55:18.530Z,29.04
2018-09-22T10:57:46.676Z,29.12
2018-09-22T11:00:14.773Z,28.18
2018-09-22T11:02:42.987Z,28.62
2018-09-22T11:05:11.125Z,28.64
2018-09-22T11:07:39.302Z,28.57
2018-09-22T11:10:07.653Z,28.74
2018-09-22T11:12:36.012Z,27.24
2018-09-22T11:15:04.550Z,27.65
2018-09-22T11:17:32.746Z,28.68
2018-09-22T11:20:01.093Z,27.26
2018-09-22T11:22:29.263Z,26.57
2018-09-22T11:24:57.510Z,25.15
2018-09-22T11:27:25.817Z,24.53
2018-09-22T11:29:54.135Z,24.07
2018-09-22T11:32:22.316Z,24.59
2018-09-22T11:34:50.493Z,25.90
2018-09-22T11:37:18.688Z,26.92
2018-09-22T11:39:46.805Z,26.47
2018-09-22T11:42:15.617Z,27.19
2018-09-22T11:44:43.874Z,27.78
2018-09-22T11:47:12.008Z,28.40
2018-09-22T11:49:40.100Z,28.32
2018-09-22T11:52:08.228Z,28.29
2018-09-22T11:54:36.353Z,27.99
2018-09-22T11:57:04.502Z,25.32
2018-09-22T11:59:32.602Z,24.94
2018-09-22T12:02:01.375Z,25.27
2018-09-22T12:04:29.646Z,27.88
2018-09-22T12:06:57.850Z,28.03
2018-09-22T12:09:26.081Z,28.21
2018-09-22T12:11:54.410Z,28.51
2018-09-22T12:14:22.552Z,26.96
2018-09-22T12:16:50.747Z,25.86
2018-09-22T12:19:18.876Z,26.72
2018-09-22T12:21:47.065Z,25.02
2018-09-22T12:24:15.506Z,24.39
2018-09-22T12:26:43.706Z,24.31
2018-09-22T12:29:11.881Z,24.01
2018-09-22T12:31:40.191Z,23.73
2018-09-22T12:34:08.613Z,25.69
2018-09-22T12:36:36.895Z,27.28
2018-09-22T12:39:09.705Z,27.06
2018-09-22T12:41:38.429Z,28.35
2018-09-22T12:44:06.708Z,30.03
2018-09-22T12:46:35.148Z,29.84
2018-09-22T12:49:03.736Z,29.45
2018-09-22T12:51:32.051Z,30.07
2018-09-22T12:54:00.219Z,30.81
2018-09-22T12:56:28.442Z,28.77
2018-09-22T12:58:56.742Z,28.34
2018-09-22T13:01:24.939Z,28.75
2018-09-22T13:03:53.457Z,28.51
2018-09-22T13:06:21.593Z,29.44
2018-09-22T13:08:50.178Z,28.61
2018-09-22T13:11:18.657Z,28.77
2018-09-22T13:13:46.754Z,30.26
2018-09-22T13:16:14.880Z,30.65
2018-09-22T13:18:43.122Z,31.26
2018-09-22T13:21:11.334Z,31.12
2018-09-22T13:23:39.527Z,30.70
2018-09-22T13:26:07.745Z,31.77
2018-09-22T13:28:35.853Z,31.80
2018-09-22T13:31:04.261Z,31.73
2018-09-22T13:33:32.534Z,31.45
2018-09-22T13:36:00.692Z,30.87
2018-09-22T13:38:28.892Z,30.90
2018-09-22T13:40:57.066Z,31.79
2018-09-22T13:43:25.268Z,32.23
2018-09-22T13:45:54.461Z,31.82
2018-09-22T13:48:22.614Z,31.13
2018-09-22T13:50:50.904Z,31.69
2018-09-22T13:53:19.006Z,33.41
2018-09-22T13:55:47.165Z,32.95
2018-09-22T13:58:15.433Z,33.60
2018-09-22T14:00:43.680Z,34.28
2018-09-22T14:03:11.968Z,33.90
2018-09-22T14:05:40.178Z,33.60
2018-09-22T14:08:08.453Z,33.97
2018-09-22T14:10:36.854Z,33.39
2018-09-22T14:13:05.021Z,33.24
2018-09-22T14:15:33.199Z,32.65
2018-09-22T14:18:01.932Z,32.41
2018-09-22T14:20:30.183Z,33.52
2018-09-22T14:22:58.368Z,33.61
2018-09-22T14:25:26.536Z,33.46
2018-09-22T14:27:54.896Z,32.47
2018-09-22T14:30:23.322Z,32.74
2018-09-22T14:32:51.476Z,32.81
2018-09-22T14:35:19.656Z,33.73
2018-09-22T14:37:47.810Z,33.03
2018-09-22T14:40:16.866Z,33.84
2018-09-22T14:42:45.088Z,33.16
2018-09-22T14:45:13.216Z,34.18
2018-09-22T14:47:41.355Z,34.52
2018-09-22T14:50:09.530Z,35.16
2018-09-22T14:52:37.715Z,35.18
2018-09-22T14:55:06.109Z,35.13
2018-09-22T14:57:34.362Z,35.60
2018-09-22T15:00:02.549Z,35.63
2018-09-22T15:02:30.754Z,36.01
2018-09-22T15:04:58.871Z,35.04
2018-09-22T15:07:27.282Z,34.85
2018-09-22T15:09:55.540Z,35.25
2018-09-22T15:12:23.803Z,35.61
2018-09-22T15:14:52.019Z,35.10
2018-09-22T15:17:20.298Z,35.90
2018-09-22T15:19:48.546Z,35.73
2018-09-22T15:22:16.738Z,35.51
2018-09-22T15:24:44.911Z,35.28
2018-09-22T15:27:13.328Z,35.38
2018-09-22T15:29:41.591Z,35.59
2018-09-22T15:32:09.783Z,35.59
2018-09-22T15:34:37.880Z,34.61
2018-09-22T15:37:06.148Z,34.46
2018-09-22T15:39:34.187Z,34.57
2018-09-22T15:42:02.408Z,34.63
2018-09-22T15:44:30.552Z,34.43
2018-09-22T15:46:58.724Z,34.51
2018-09-22T15:49:26.862Z,33.81
2018-09-22T15:51:55.266Z,34.49
2018-09-22T15:54:23.532Z,34.79
2018-09-22T15:56:51.820Z,34.81
2018-09-22T15:59:20.020Z,35.15
2018-09-22T16:01:48.219Z,35.09
2018-09-22T16:04:16.336Z,35.60
2018-09-22T16:06:44.869Z,35.21
2018-09-22T16:09:13.087Z,35.83
2018-09-22T16:11:41.175Z,36.26
2018-09-22T16:14:09.437Z,36.18
2018-09-22T16:16:37.752Z,36.47
2018-09-22T16:19:06.087Z,36.41
2018-09-22T16:21:34.251Z,36.86
2018-09-22T16:24:02.595Z,36.07
2018-09-22T16:26:30.842Z,36.50
2018-09-22T16:28:58.902Z,36.76
2018-09-22T16:31:27.085Z,36.49
2018-09-22T16:33:55.319Z,36.60
2018-09-22T16:36:23.489Z,36.87
2018-09-22T16:38:51.660Z,36.74
2018-09-22T16:41:19.853Z,37.30
2018-09-22T16:43:48.136Z,37.89
2018-09-22T16:46:16.289Z,37.77
2018-09-22T16:48:44.448Z,38.26
2018-09-22T16:51:12.585Z,37.83
2018-09-22T16:53:40.745Z,37.73
2018-09-22T16:56:08.952Z,37.85
2018-09-22T16:58:37.230Z,38.01
2018-09-22T17:01:05.351Z,37.85
2018-09-22T17:03:33.555Z,38.08
2018-09-22T17:06:01.733Z,38.19
2018-09-22T17:08:30.081Z,38.11
2018-09-22T17:10:58.297Z,38.52
2018-09-22T17:13:26.536Z,38.09
2018-09-22T17:15:55.658Z,38.33
2018-09-22T17:18:23.780Z,38.47
2018-09-22T17:20:51.941Z,38.62
2018-09-22T17:23:20.074Z,38.99
2018-09-22T17:25:48.288Z,39.24
2018-09-22T17:28:16.461Z,39.62
2018-09-22T17:30:44.609Z,38.60
2018-09-22T17:33:13.846Z,39.12
2018-09-22T17:35:41.975Z,38.88
2018-09-22T17:38:10.339Z,38.51
2018-09-22T17:40:38.515Z,38.40
2018-09-22T17:43:06.853Z,38.56
2018-09-22T17:45:35.076Z,38.09
2018-09-22T17:48:03.282Z,38.75
2018-09-22T17:50:31.414Z,38.69
2018-09-22T17:52:59.495Z,39.09
2018-09-22T17:55:27.704Z,38.71
2018-09-22T17:57:55.862Z,38.98
2018-09-22T18:00:24.198Z,39.79
2018-09-22T18:02:52.404Z,39.65
2018-09-22T18:05:20.600Z,39.41
2018-09-22T18:07:48.859Z,39.53
2018-09-22T18:10:17.140Z,39.29
2018-09-22T18:12:45.320Z,39.24
2018-09-22T18:15:13.530Z,40.15
2018-09-22T18:17:41.724Z,39.77
2018-09-22T18:20:10.227Z,39.85
2018-09-22T18:22:38.417Z,39.89
2018-09-22T18:25:07.019Z,40.34
2018-09-22T18:27:35.255Z,40.84
2018-09-22T18:30:03.570Z,41.22
2018-09-22T18:32:31.715Z,41.61
2018-09-22T18:35:00.052Z,41.21
2018-09-22T18:37:28.254Z,41.60
2018-09-22T18:39:56.463Z,41.62
2018-09-22T18:42:24.661Z,41.42
2018-09-22T18:44:53.045Z,41.58
2018-09-22T18:47:24.562Z,42.34
2018-09-22T18:49:52.790Z,42.08
2018-09-22T18:52:21.090Z,41.81
2018-09-22T18:54:49.450Z,42.05
2018-09-22T18:57:17.719Z,42.44
2018-09-22T18:59:45.977Z,42.61
2018-09-22T19:02:14.213Z,42.75
2018-09-22T19:04:42.540Z,43.19
2018-09-22T19:07:10.830Z,42.84
2018-09-22T19:09:38.977Z,42.71
2018-09-22T19:12:07.779Z,42.56
2018-09-22T19:14:40.718Z,43.13
2018-09-22T19:17:44.472Z,43.38
2018-09-22T19:20:17.185Z,43.81
2018-09-22T19:22:51.275Z,43.72
2018-09-22T19:25:21.721Z,43.77
2018-09-22T19:27:58.117Z,43.77
2018-09-22T19:30:32.027Z,43.75
2018-09-22T19:33:04.857Z,43.57
2018-09-22T19:35:38.241Z,43.74
2018-09-22T19:38:15.896Z,44.41
2018-09-22T19:40:48.412Z,44.47
2018-09-22T19:43:35.781Z,44.22
2018-09-22T19:47:08.475Z,44.50
2018-09-22T19:49:41.236Z,45.43
2018-09-22T19:52:12.754Z,45.08
2018-09-22T19:54:41.033Z,45.53
2018-09-22T19:57:09.400Z,45.00
2018-09-22T19:59:37.852Z,45.07
2018-09-22T20:02:05.970Z,45.02
2018-09-22T20:04:34.288Z,45.29
2018-09-22T20:07:02.472Z,45.48
2018-09-22T20:09:30.700Z,46.39
2018-09-22T20:11:58.942Z,46.04
2018-09-22T20:14:27.093Z,47.05
2018-09-22T20:16:55.308Z,46.89
2018-09-22T20:19:23.523Z,48.17
2018-09-22T20:21:51.678Z,48.12
2018-09-22T20:24:19.799Z,48.64
2018-09-22T20:26:47.934Z,49.15
2018-09-22T20:29:16.040Z,48.96
2018-09-22T20:31:44.440Z,48.96
2018-09-22T20:34:12.589Z,49.22
2018-09-22T20:36:40.773Z,49.47
2018-09-22T20:39:09.574Z,49.40
2018-09-22T20:41:37.680Z,50.31
2018-09-22T20:44:05.890Z,52.05
2018-09-22T20:46:34.109Z,51.90
2018-09-22T20:49:02.372Z,52.72
2018-09-22T20:51:30.601Z,54.68
2018-09-22T20:53:58.918Z,55.58
2018-09-22T20:56:27.139Z,55.89
2018-09-22T20:58:56.037Z,54.90
2018-09-22T21:01:24.224Z,54.40
2018-09-22T21:03:53.097Z,55.24
2018-09-22T21:06:21.275Z,55.33
2018-09-22T21:08:49.620Z,55.29
2018-09-22T21:11:17.767Z,56.42
2018-09-22T21:13:46.170Z,56.67
2018-09-22T21:16:14.441Z,57.05
2018-09-22T21:18:42.674Z,57.64
2018-09-22T21:21:12.066Z,57.54
2018-09-22T21:23:40.291Z,57.44
2018-09-22T21:26:08.587Z,58.37
2018-09-22T21:28:36.774Z,58.40
2018-09-22T21:31:05.740Z,58.22
2018-09-22T21:33:34.548Z,58.25
2018-09-22T21:36:02.868Z,58.37
2018-09-22T21:38:31.099Z,58.06
2018-09-22T21:40:59.377Z,58.69
2018-09-22T21:43:27.625Z,58.52
2018-09-22T21:45:56.161Z,57.91
2018-09-22T21:48:24.355Z,57.96
2018-09-22T21:50:52.668Z,57.74
2018-09-22T21:53:20.923Z,57.48
2018-09-22T21:55:52.433Z,57.11
2018-09-22T21:58:21.054Z,58.87
2018-09-22T22:00:50.662Z,59.50
2018-09-22T22:03:19.705Z,58.59
2018-09-22T22:05:54.782Z,59.19
2018-09-22T22:08:23.115Z,59.15
2018-09-22T22:10:51.279Z,59.36
2018-09-22T22:13:19.533Z,59.60
2018-09-22T22:15:47.999Z,60.63
2018-09-22T22:18:16.231Z,59.79
2018-09-22T22:20:44.470Z,59.82
2018-09-22T22:23:12.768Z,59.83
2018-09-22T22:25:42.682Z,60.96
2018-09-22T22:28:10.851Z,61.27
2018-09-22T22:30:39.680Z,61.93
2018-09-22T22:33:07.959Z,61.05
2018-09-22T22:35:36.408Z,61.31
2018-09-22T22:38:04.730Z,62.30
2018-09-22T22:40:32.964Z,61.37
2018-09-22T22:43:01.139Z,62.43
2018-09-22T22:45:29.418Z,62.84
2018-09-22T22:47:58.238Z,62.20
2018-09-22T22:50:26.351Z,62.31
2018-09-22T22:52:54.548Z,62.21
2018-09-22T22:55:23.858Z,62.28
2018-09-22T22:57:52.170Z,61.30
2018-09-22T23:00:20.524Z,61.73
2018-09-22T23:02:48.759Z,61.77
2018-09-22T23:05:16.928Z,62.00
2018-09-22T23:07:45.231Z,61.30
2018-09-22T23:10:13.403Z,62.38
2018-09-22T23:12:41.661Z,62.14
2018-09-22T23:15:10.535Z,62.28
2018-09-22T23:17:38.781Z,62.31
2018-09-22T23:20:07.177Z,62.71
2018-09-22T23:22:35.333Z,62.35
2018-09-22T23:25:04.385Z,63.10
2018-09-22T23:27:32.636Z,62.33
2018-09-22T23:30:00.796Z,62.21
2018-09-22T23:32:28.912Z,63.16
2018-09-22T23:34:57.119Z,62.86
2018-09-22T23:37:26.102Z,63.02
2018-09-22T23:39:54.247Z,63.91
2018-09-22T23:42:22.456Z,64.22
2018-09-22T23:44:51.397Z,63.44
2018-09-22T23:47:19.585Z,63.88
2018-09-22T23:49:47.803Z,64.39
2018-09-22T23:52:16.055Z,64.24
2018-09-22T23:54:44.300Z,64.33
2018-09-22T23:57:12.436Z,64.33
2018-09-22T23:59:40.730Z,65.06
